sensor_id;sensor_type;location;lat;lon;timestamp;P1;durP1;ratioP1;P2;durP2;ratioP2
1140;SDS011;559;48.628;8.924;2022-11-14T00:01:51;77.85;;;72.15;;
1140;SDS011;559;48.628;8.924;2022-11-14T00:04:19;85.57;;;79.82;;
1140;SDS011;559;48.628;8.924;2022-11-14T00:06:46;84.20;;;78.30;;
1140;SDS011;559;48.628;8.924;2022-11-14T00:09:12;86.38;;;80.68;;
1140;SDS011;559;48.628;8.924;2022-11-14T00:11:39;84.57;;;78.72;;
1140;SDS011;559;48.628;8.924;2022-11-14T00:14:05;84.10;;;78.20;;
1140;SDS011;559;48.628;8.924;2022-11-14T00:16:32;85.82;;;80.03;;
1140;SDS011;559;48.628;8.924;2022-11-14T00:18:59;80.72;;;75.13;;
1140;SDS011;559;48.628;8.924;2022-11-14T00:21:27;80.07;;;74.57;;
1140;SDS011;559;48.628;8.924;2022-11-14T00:23:54;83.57;;;77.88;;
1140;SDS011;559;48.628;8.924;2022-11-14T00:26:20;87.68;;;82.05;;
1140;SDS011;559;48.628;8.924;2022-11-14T00:28:47;89.40;;;83.50;;
1140;SDS011;559;48.628;8.924;2022-11-14T00:31:13;88.43;;;82.70;;
1140;SDS011;559;48.628;8.924;2022-11-14T00:33:40;82.35;;;76.80;;
1140;SDS011;559;48.628;8.924;2022-11-14T00:36:07;86.00;;;80.10;;
1140;SDS011;559;48.628;8.924;2022-11-14T00:38:35;87.35;;;81.63;;
1140;SDS011;559;48.628;8.924;2022-11-14T00:41:02;84.70;;;79.05;;
1140;SDS011;559;48.628;8.924;2022-11-14T00:43:28;84.35;;;78.78;;
1140;SDS011;559;48.628;8.924;2022-11-14T00:45:55;84.55;;;78.60;;
1140;SDS011;559;48.628;8.924;2022-11-14T00:48:21;85.30;;;79.65;;
1140;SDS011;559;48.628;8.924;2022-11-14T00:50:48;77.60;;;72.00;;
1140;SDS011;559;48.628;8.924;2022-11-14T00:53:15;75.93;;;70.47;;
1140;SDS011;559;48.628;8.924;2022-11-14T00:55:43;76.00;;;70.50;;
1140;SDS011;559;48.628;8.924;2022-11-14T00:58:09;79.88;;;74.47;;
1140;SDS011;559;48.628;8.924;2022-11-14T01:00:36;81.90;;;76.28;;
1140;SDS011;559;48.628;8.924;2022-11-14T01:03:03;76.32;;;70.85;;
1140;SDS011;559;48.628;8.924;2022-11-14T01:05:30;78.55;;;72.95;;
1140;SDS011;559;48.628;8.924;2022-11-14T01:07:56;77.15;;;71.85;;
1140;SDS011;559;48.628;8.924;2022-11-14T01:10:23;85.68;;;79.95;;
1140;SDS011;559;48.628;8.924;2022-11-14T01:12:51;81.47;;;75.60;;
1140;SDS011;559;48.628;8.924;2022-11-14T01:15:17;87.18;;;81.40;;
1140;SDS011;559;48.628;8.924;2022-11-14T01:17:44;80.72;;;75.13;;
1140;SDS011;559;48.628;8.924;2022-11-14T01:20:10;81.60;;;75.80;;
1140;SDS011;559;48.628;8.924;2022-11-14T01:22:37;79.88;;;74.15;;
1140;SDS011;559;48.628;8.924;2022-11-14T01:25:04;76.53;;;71.10;;
1140;SDS011;559;48.628;8.924;2022-11-14T01:27:33;79.15;;;73.55;;
1140;SDS011;559;48.628;8.924;2022-11-14T01:30:01;75.50;;;70.10;;
1140;SDS011;559;48.628;8.924;2022-11-14T01:32:28;78.93;;;73.35;;
1140;SDS011;559;48.628;8.924;2022-11-14T01:34:55;77.15;;;71.80;;
1140;SDS011;559;48.628;8.924;2022-11-14T01:37:22;79.07;;;73.55;;
1140;SDS011;559;48.628;8.924;2022-11-14T01:39:48;80.28;;;74.68;;
1140;SDS011;559;48.628;8.924;2022-11-14T01:42:15;82.25;;;76.70;;
1140;SDS011;559;48.628;8.924;2022-11-14T01:44:45;84.53;;;78.93;;
1140;SDS011;559;48.628;8.924;2022-11-14T01:47:15;76.82;;;71.43;;
1140;SDS011;559;48.628;8.924;2022-11-14T01:49:44;80.35;;;74.72;;
1140;SDS011;559;48.628;8.924;2022-11-14T01:52:13;79.20;;;73.40;;
1140;SDS011;559;48.628;8.924;2022-11-14T01:54:42;75.40;;;69.90;;
1140;SDS011;559;48.628;8.924;2022-11-14T01:57:10;74.43;;;68.80;;
1140;SDS011;559;48.628;8.924;2022-11-14T01:59:39;78.40;;;72.90;;
1140;SDS011;559;48.628;8.924;2022-11-14T02:02:09;75.07;;;69.68;;
1140;SDS011;559;48.628;8.924;2022-11-14T02:04:42;77.25;;;71.60;;
1140;SDS011;559;48.628;8.924;2022-11-14T02:07:10;74.38;;;68.97;;
1140;SDS011;559;48.628;8.924;2022-11-14T02:09:38;75.32;;;70.03;;
1140;SDS011;559;48.628;8.924;2022-11-14T02:12:09;76.43;;;70.82;;
1140;SDS011;559;48.628;8.924;2022-11-14T02:14:38;74.50;;;69.20;;
1140;SDS011;559;48.628;8.924;2022-11-14T02:17:06;80.18;;;74.78;;
1140;SDS011;559;48.628;8.924;2022-11-14T02:19:41;74.18;;;68.97;;
1140;SDS011;559;48.628;8.924;2022-11-14T02:22:10;75.45;;;69.95;;
1140;SDS011;559;48.628;8.924;2022-11-14T02:24:37;75.88;;;70.68;;
1140;SDS011;559;48.628;8.924;2022-11-14T02:27:04;80.50;;;74.65;;
1140;SDS011;559;48.628;8.924;2022-11-14T02:29:30;79.88;;;74.18;;
1140;SDS011;559;48.628;8.924;2022-11-14T02:31:57;79.88;;;74.35;;
1140;SDS011;559;48.628;8.924;2022-11-14T02:34:24;77.63;;;72.43;;
1140;SDS011;559;48.628;8.924;2022-11-14T02:36:50;76.60;;;71.30;;
1140;SDS011;559;48.628;8.924;2022-11-14T02:39:18;80.18;;;74.78;;
1140;SDS011;559;48.628;8.924;2022-11-14T02:41:45;74.32;;;68.90;;
1140;SDS011;559;48.628;8.924;2022-11-14T02:44:12;71.40;;;66.25;;
1140;SDS011;559;48.628;8.924;2022-11-14T02:46:38;70.55;;;65.53;;
1140;SDS011;559;48.628;8.924;2022-11-14T02:49:05;73.03;;;67.75;;
1140;SDS011;559;48.628;8.924;2022-11-14T02:51:34;71.65;;;66.35;;
1140;SDS011;559;48.628;8.924;2022-11-14T02:54:01;70.20;;;64.93;;
1140;SDS011;559;48.628;8.924;2022-11-14T02:56:29;71.82;;;66.43;;
1140;SDS011;559;48.628;8.924;2022-11-14T02:58:55;77.97;;;72.55;;
1140;SDS011;559;48.628;8.924;2022-11-14T03:01:22;70.68;;;65.35;;
1140;SDS011;559;48.628;8.924;2022-11-14T03:03:49;73.00;;;67.25;;
1140;SDS011;559;48.628;8.924;2022-11-14T03:06:16;69.80;;;64.70;;
1140;SDS011;559;48.628;8.924;2022-11-14T03:08:42;73.57;;;68.20;;
1140;SDS011;559;48.628;8.924;2022-11-14T03:11:09;71.22;;;65.78;;
1140;SDS011;559;48.628;8.924;2022-11-14T03:13:37;69.28;;;64.03;;
1140;SDS011;559;48.628;8.924;2022-11-14T03:16:04;72.68;;;67.32;;
1140;SDS011;559;48.628;8.924;2022-11-14T03:18:32;70.03;;;64.50;;
1140;SDS011;559;48.628;8.924;2022-11-14T03:21:03;73.20;;;67.90;;
1140;SDS011;559;48.628;8.924;2022-11-14T03:23:31;76.28;;;70.88;;
1140;SDS011;559;48.628;8.924;2022-11-14T03:25:59;81.18;;;75.68;;
1140;SDS011;559;48.628;8.924;2022-11-14T03:28:26;82.15;;;76.28;;
1140;SDS011;559;48.628;8.924;2022-11-14T03:30:54;83.50;;;77.80;;
1140;SDS011;559;48.628;8.924;2022-11-14T03:33:21;83.32;;;77.53;;
1140;SDS011;559;48.628;8.924;2022-11-14T03:35:48;83.45;;;77.53;;
1140;SDS011;559;48.628;8.924;2022-11-14T03:38:14;83.57;;;77.72;;
1140;SDS011;559;48.628;8.924;2022-11-14T03:40:42;86.25;;;80.20;;
1140;SDS011;559;48.628;8.924;2022-11-14T03:43:08;80.60;;;74.85;;
1140;SDS011;559;48.628;8.924;2022-11-14T03:45:35;77.45;;;72.05;;
1140;SDS011;559;48.628;8.924;2022-11-14T03:48:03;76.13;;;70.63;;
1140;SDS011;559;48.628;8.924;2022-11-14T03:50:30;78.57;;;72.75;;
1140;SDS011;559;48.628;8.924;2022-11-14T03:52:57;77.53;;;71.85;;
1140;SDS011;559;48.628;8.924;2022-11-14T03:55:24;76.50;;;70.80;;
1140;SDS011;559;48.628;8.924;2022-11-14T03:57:51;76.78;;;71.28;;
1140;SDS011;559;48.628;8.924;2022-11-14T04:00:18;77.18;;;71.50;;
1140;SDS011;559;48.628;8.924;2022-11-14T04:02:45;78.00;;;72.45;;
1140;SDS011;559;48.628;8.924;2022-11-14T04:05:13;81.82;;;76.05;;
1140;SDS011;559;48.628;8.924;2022-11-14T04:07:40;79.22;;;73.53;;
1140;SDS011;559;48.628;8.924;2022-11-14T04:10:07;78.75;;;73.05;;
1140;SDS011;559;48.628;8.924;2022-11-14T04:12:34;75.53;;;69.93;;
1140;SDS011;559;48.628;8.924;2022-11-14T04:15:00;79.15;;;73.38;;
1140;SDS011;559;48.628;8.924;2022-11-14T04:17:27;79.78;;;74.18;;
1140;SDS011;559;48.628;8.924;2022-11-14T04:19:53;82.50;;;76.90;;
1140;SDS011;559;48.628;8.924;2022-11-14T04:22:21;83.40;;;77.68;;
1140;SDS011;559;48.628;8.924;2022-11-14T04:24:48;85.35;;;79.35;;
1140;SDS011;559;48.628;8.924;2022-11-14T04:27:15;86.00;;;80.20;;
1140;SDS011;559;48.628;8.924;2022-11-14T04:29:41;82.15;;;76.63;;
1140;SDS011;559;48.628;8.924;2022-11-14T04:32:08;88.95;;;83.05;;
1140;SDS011;559;48.628;8.924;2022-11-14T04:34:34;93.95;;;87.93;;
1140;SDS011;559;48.628;8.924;2022-11-14T04:37:01;88.50;;;81.90;;
1140;SDS011;559;48.628;8.924;2022-11-14T04:39:29;87.45;;;81.45;;
1140;SDS011;559;48.628;8.924;2022-11-14T04:41:57;76.72;;;70.97;;
1140;SDS011;559;48.628;8.924;2022-11-14T04:44:24;82.53;;;76.93;;
1140;SDS011;559;48.628;8.924;2022-11-14T04:46:50;79.05;;;73.55;;
1140;SDS011;559;48.628;8.924;2022-11-14T04:49:17;86.22;;;80.43;;
1140;SDS011;559;48.628;8.924;2022-11-14T04:51:44;97.68;;;91.28;;
1140;SDS011;559;48.628;8.924;2022-11-14T04:54:10;95.28;;;89.10;;
1140;SDS011;559;48.628;8.924;2022-11-14T04:56:38;96.88;;;90.65;;
1140;SDS011;559;48.628;8.924;2022-11-14T04:59:05;96.57;;;90.38;;
1140;SDS011;559;48.628;8.924;2022-11-14T05:01:31;95.93;;;89.82;;
1140;SDS011;559;48.628;8.924;2022-11-14T05:03:58;87.88;;;82.13;;
1140;SDS011;559;48.628;8.924;2022-11-14T05:06:24;93.03;;;87.05;;
1140;SDS011;559;48.628;8.924;2022-11-14T05:08:51;87.93;;;82.20;;
1140;SDS011;559;48.628;8.924;2022-11-14T05:11:18;94.60;;;88.68;;
1140;SDS011;559;48.628;8.924;2022-11-14T05:13:46;90.55;;;84.85;;
1140;SDS011;559;48.628;8.924;2022-11-14T05:16:13;94.25;;;88.45;;
1140;SDS011;559;48.628;8.924;2022-11-14T05:18:40;86.70;;;81.10;;
1140;SDS011;559;48.628;8.924;2022-11-14T05:21:09;87.82;;;82.07;;
1140;SDS011;559;48.628;8.924;2022-11-14T05:23:36;86.95;;;81.15;;
1140;SDS011;559;48.628;8.924;2022-11-14T05:26:03;90.82;;;84.72;;
1140;SDS011;559;48.628;8.924;2022-11-14T05:28:31;86.53;;;80.65;;
1140;SDS011;559;48.628;8.924;2022-11-14T05:31:03;90.28;;;84.18;;
1140;SDS011;559;48.628;8.924;2022-11-14T05:33:31;93.50;;;87.20;;
1140;SDS011;559;48.628;8.924;2022-11-14T05:36:00;91.13;;;84.25;;
1140;SDS011;559;48.628;8.924;2022-11-14T05:38:28;95.03;;;88.82;;
1140;SDS011;559;48.628;8.924;2022-11-14T05:40:54;91.28;;;85.10;;
1140;SDS011;559;48.628;8.924;2022-11-14T05:43:21;86.18;;;79.97;;
1140;SDS011;559;48.628;8.924;2022-11-14T05:45:48;91.40;;;85.15;;
1140;SDS011;559;48.628;8.924;2022-11-14T05:48:24;93.22;;;87.00;;
1140;SDS011;559;48.628;8.924;2022-11-14T05:50:52;94.90;;;88.68;;
1140;SDS011;559;48.628;8.924;2022-11-14T05:53:19;90.43;;;84.32;;
1140;SDS011;559;48.628;8.924;2022-11-14T05:55:47;91.80;;;85.90;;
1140;SDS011;559;48.628;8.924;2022-11-14T05:58:13;91.75;;;85.85;;
1140;SDS011;559;48.628;8.924;2022-11-14T06:00:40;94.00;;;88.00;;
1140;SDS011;559;48.628;8.924;2022-11-14T06:03:07;96.40;;;90.28;;
1140;SDS011;559;48.628;8.924;2022-11-14T06:05:39;101.63;;;95.32;;
1140;SDS011;559;48.628;8.924;2022-11-14T06:08:06;96.95;;;90.75;;
1140;SDS011;559;48.628;8.924;2022-11-14T06:10:33;104.38;;;97.97;;
1140;SDS011;559;48.628;8.924;2022-11-14T06:13:01;101.63;;;95.50;;
1140;SDS011;559;48.628;8.924;2022-11-14T06:15:28;96.90;;;90.68;;
1140;SDS011;559;48.628;8.924;2022-11-14T06:17:54;102.53;;;96.15;;
1140;SDS011;559;48.628;8.924;2022-11-14T06:20:21;99.85;;;93.57;;
1140;SDS011;559;48.628;8.924;2022-11-14T06:22:49;100.53;;;94.22;;
1140;SDS011;559;48.628;8.924;2022-11-14T06:25:19;100.50;;;94.32;;
1140;SDS011;559;48.628;8.924;2022-11-14T06:27:46;96.22;;;90.03;;
1140;SDS011;559;48.628;8.924;2022-11-14T06:30:12;100.85;;;94.28;;
1140;SDS011;559;48.628;8.924;2022-11-14T06:32:39;107.03;;;100.30;;
1140;SDS011;559;48.628;8.924;2022-11-14T06:35:06;111.75;;;104.97;;
1140;SDS011;559;48.628;8.924;2022-11-14T06:37:34;109.88;;;102.68;;
1140;SDS011;559;48.628;8.924;2022-11-14T06:40:03;119.75;;;111.18;;
1140;SDS011;559;48.628;8.924;2022-11-14T06:42:30;116.57;;;109.32;;
1140;SDS011;559;48.628;8.924;2022-11-14T06:44:57;106.07;;;99.15;;
1140;SDS011;559;48.628;8.924;2022-11-14T06:47:24;111.20;;;104.15;;
1140;SDS011;559;48.628;8.924;2022-11-14T06:49:50;113.00;;;106.00;;
1140;SDS011;559;48.628;8.924;2022-11-14T06:52:17;113.05;;;106.35;;
1140;SDS011;559;48.628;8.924;2022-11-14T06:54:43;114.85;;;107.85;;
1140;SDS011;559;48.628;8.924;2022-11-14T06:57:11;114.15;;;107.40;;
1140;SDS011;559;48.628;8.924;2022-11-14T06:59:38;104.07;;;97.68;;
1140;SDS011;559;48.628;8.924;2022-11-14T07:02:05;109.78;;;102.85;;
1140;SDS011;559;48.628;8.924;2022-11-14T07:04:31;106.35;;;99.70;;
1140;SDS011;559;48.628;8.924;2022-11-14T07:06:58;101.57;;;95.07;;
1140;SDS011;559;48.628;8.924;2022-11-14T07:09:24;104.28;;;97.68;;
1140;SDS011;559;48.628;8.924;2022-11-14T07:11:51;103.60;;;96.80;;
1140;SDS011;559;48.628;8.924;2022-11-14T07:14:19;99.90;;;93.40;;
1140;SDS011;559;48.628;8.924;2022-11-14T07:16:49;89.60;;;83.30;;
1140;SDS011;559;48.628;8.924;2022-11-14T07:19:15;86.85;;;80.85;;
1140;SDS011;559;48.628;8.924;2022-11-14T07:21:42;90.85;;;84.55;;
1140;SDS011;559;48.628;8.924;2022-11-14T07:24:09;90.22;;;84.03;;
1140;SDS011;559;48.628;8.924;2022-11-14T07:26:35;88.88;;;82.85;;
1140;SDS011;559;48.628;8.924;2022-11-14T07:29:02;90.75;;;84.57;;
1140;SDS011;559;48.628;8.924;2022-11-14T07:31:30;90.57;;;84.57;;
1140;SDS011;559;48.628;8.924;2022-11-14T07:33:57;95.45;;;89.15;;
1140;SDS011;559;48.628;8.924;2022-11-14T07:36:23;92.63;;;86.50;;
1140;SDS011;559;48.628;8.924;2022-11-14T07:38:50;97.50;;;88.57;;
1140;SDS011;559;48.628;8.924;2022-11-14T07:41:17;88.82;;;82.03;;
1140;SDS011;559;48.628;8.924;2022-11-14T07:43:44;95.53;;;88.63;;
1140;SDS011;559;48.628;8.924;2022-11-14T07:46:12;99.78;;;93.07;;
1140;SDS011;559;48.628;8.924;2022-11-14T07:48:41;103.20;;;96.40;;
1140;SDS011;559;48.628;8.924;2022-11-14T07:51:08;108.63;;;100.90;;
1140;SDS011;559;48.628;8.924;2022-11-14T07:53:36;106.85;;;99.70;;
1140;SDS011;559;48.628;8.924;2022-11-14T07:56:03;103.28;;;96.43;;
1140;SDS011;559;48.628;8.924;2022-11-14T07:58:33;109.20;;;102.65;;
1140;SDS011;559;48.628;8.924;2022-11-14T08:01:00;109.80;;;103.10;;
1140;SDS011;559;48.628;8.924;2022-11-14T08:03:27;108.80;;;102.20;;
1140;SDS011;559;48.628;8.924;2022-11-14T08:05:59;111.05;;;104.35;;
1140;SDS011;559;48.628;8.924;2022-11-14T08:08:26;111.50;;;104.80;;
1140;SDS011;559;48.628;8.924;2022-11-14T08:10:54;113.32;;;106.72;;
1140;SDS011;559;48.628;8.924;2022-11-14T08:13:21;107.57;;;101.45;;
1140;SDS011;559;48.628;8.924;2022-11-14T08:15:47;105.32;;;99.13;;
1140;SDS011;559;48.628;8.924;2022-11-14T08:18:14;105.95;;;100.05;;
1140;SDS011;559;48.628;8.924;2022-11-14T08:20:40;114.00;;;107.95;;
1140;SDS011;559;48.628;8.924;2022-11-14T08:23:09;105.40;;;99.50;;
1140;SDS011;559;48.628;8.924;2022-11-14T08:25:36;108.90;;;102.70;;
1140;SDS011;559;48.628;8.924;2022-11-14T08:28:03;106.30;;;100.10;;
1140;SDS011;559;48.628;8.924;2022-11-14T08:30:30;105.85;;;99.90;;
1140;SDS011;559;48.628;8.924;2022-11-14T08:32:56;111.63;;;105.60;;
1140;SDS011;559;48.628;8.924;2022-11-14T08:35:26;109.68;;;103.65;;
1140;SDS011;559;48.628;8.924;2022-11-14T08:37:53;109.38;;;103.38;;
1140;SDS011;559;48.628;8.924;2022-11-14T08:40:20;101.40;;;95.63;;
1140;SDS011;559;48.628;8.924;2022-11-14T08:42:47;106.78;;;100.88;;
1140;SDS011;559;48.628;8.924;2022-11-14T08:45:13;106.82;;;100.88;;
1140;SDS011;559;48.628;8.924;2022-11-14T08:47:40;105.63;;;99.63;;
1140;SDS011;559;48.628;8.924;2022-11-14T08:50:07;108.88;;;102.80;;
1140;SDS011;559;48.628;8.924;2022-11-14T08:52:34;114.70;;;108.60;;
1140;SDS011;559;48.628;8.924;2022-11-14T08:55:00;106.90;;;100.95;;
1140;SDS011;559;48.628;8.924;2022-11-14T08:57:28;104.57;;;98.68;;
1140;SDS011;559;48.628;8.924;2022-11-14T08:59:54;94.78;;;89.22;;
1140;SDS011;559;48.628;8.924;2022-11-14T09:02:21;101.18;;;95.47;;
1140;SDS011;559;48.628;8.924;2022-11-14T09:04:47;107.18;;;101.28;;
1140;SDS011;559;48.628;8.924;2022-11-14T09:07:14;101.57;;;95.68;;
1140;SDS011;559;48.628;8.924;2022-11-14T09:09:40;108.45;;;102.45;;
1140;SDS011;559;48.628;8.924;2022-11-14T09:12:07;101.93;;;96.03;;
1140;SDS011;559;48.628;8.924;2022-11-14T09:14:35;105.47;;;99.53;;
1140;SDS011;559;48.628;8.924;2022-11-14T09:17:01;100.60;;;94.90;;
1140;SDS011;559;48.628;8.924;2022-11-14T09:19:28;106.15;;;100.22;;
1140;SDS011;559;48.628;8.924;2022-11-14T09:21:54;99.45;;;93.80;;
1140;SDS011;559;48.628;8.924;2022-11-14T09:24:21;97.30;;;91.60;;
1140;SDS011;559;48.628;8.924;2022-11-14T09:26:49;97.40;;;91.90;;
1140;SDS011;559;48.628;8.924;2022-11-14T09:29:16;94.85;;;89.35;;
1140;SDS011;559;48.628;8.924;2022-11-14T09:31:44;97.30;;;91.68;;
1140;SDS011;559;48.628;8.924;2022-11-14T09:34:11;95.68;;;90.20;;
1140;SDS011;559;48.628;8.924;2022-11-14T09:36:37;95.30;;;89.60;;
1140;SDS011;559;48.628;8.924;2022-11-14T09:39:04;100.93;;;95.13;;
1140;SDS011;559;48.628;8.924;2022-11-14T09:41:35;92.97;;;87.18;;
1140;SDS011;559;48.628;8.924;2022-11-14T09:47:00;93.50;;;87.70;;
1140;SDS011;559;48.628;8.924;2022-11-14T09:49:29;88.93;;;83.53;;
1140;SDS011;559;48.628;8.924;2022-11-14T09:51:59;79.95;;;74.82;;
1140;SDS011;559;48.628;8.924;2022-11-14T09:54:33;78.70;;;73.60;;
1140;SDS011;559;48.628;8.924;2022-11-14T09:57:03;77.50;;;72.53;;
1140;SDS011;559;48.628;8.924;2022-11-14T09:59:38;78.43;;;73.47;;
1140;SDS011;559;48.628;8.924;2022-11-14T10:02:12;84.75;;;79.55;;
1140;SDS011;559;48.628;8.924;2022-11-14T10:04:47;89.68;;;84.47;;
1140;SDS011;559;48.628;8.924;2022-11-14T10:07:19;84.03;;;78.93;;
1140;SDS011;559;48.628;8.924;2022-11-14T10:09:52;82.25;;;77.20;;
1140;SDS011;559;48.628;8.924;2022-11-14T10:12:24;83.32;;;78.40;;
1140;SDS011;559;48.628;8.924;2022-11-14T10:14:59;86.05;;;80.95;;
1140;SDS011;559;48.628;8.924;2022-11-14T10:17:39;89.85;;;84.75;;
1140;SDS011;559;48.628;8.924;2022-11-14T10:20:13;91.75;;;86.45;;
1140;SDS011;559;48.628;8.924;2022-11-14T10:22:49;83.00;;;78.00;;
1140;SDS011;559;48.628;8.924;2022-11-14T10:25:23;85.95;;;80.85;;
1140;SDS011;559;48.628;8.924;2022-11-14T10:27:55;87.30;;;82.20;;
1140;SDS011;559;48.628;8.924;2022-11-14T10:30:28;87.30;;;82.13;;
1140;SDS011;559;48.628;8.924;2022-11-14T10:33:03;88.07;;;82.68;;
1140;SDS011;559;48.628;8.924;2022-11-14T10:35:36;93.15;;;87.65;;
1140;SDS011;559;48.628;8.924;2022-11-14T10:38:08;94.22;;;88.93;;
1140;SDS011;559;48.628;8.924;2022-11-14T10:40:38;82.82;;;77.72;;
1140;SDS011;559;48.628;8.924;2022-11-14T10:43:09;82.55;;;77.50;;
1140;SDS011;559;48.628;8.924;2022-11-14T10:45:42;82.85;;;77.75;;
1140;SDS011;559;48.628;8.924;2022-11-14T10:48:14;79.75;;;74.95;;
1140;SDS011;559;48.628;8.924;2022-11-14T10:50:44;81.35;;;76.45;;
1140;SDS011;559;48.628;8.924;2022-11-14T10:53:18;82.00;;;77.10;;
1140;SDS011;559;48.628;8.924;2022-11-14T10:55:49;82.85;;;77.80;;
1140;SDS011;559;48.628;8.924;2022-11-14T10:58:16;76.78;;;71.95;;
1140;SDS011;559;48.628;8.924;2022-11-14T11:00:42;76.25;;;71.25;;
1140;SDS011;559;48.628;8.924;2022-11-14T11:03:09;75.60;;;70.80;;
1140;SDS011;559;48.628;8.924;2022-11-14T11:05:45;71.78;;;67.25;;
1140;SDS011;559;48.628;8.924;2022-11-14T11:08:17;75.50;;;70.68;;
1140;SDS011;559;48.628;8.924;2022-11-14T11:11:02;72.30;;;67.70;;
1140;SDS011;559;48.628;8.924;2022-11-14T11:13:50;68.72;;;64.22;;
1140;SDS011;559;48.628;8.924;2022-11-14T11:16:20;67.60;;;63.05;;
1140;SDS011;559;48.628;8.924;2022-11-14T11:18:47;74.28;;;69.68;;
1140;SDS011;559;48.628;8.924;2022-11-14T11:21:16;72.20;;;67.63;;
1140;SDS011;559;48.628;8.924;2022-11-14T11:23:47;73.32;;;68.63;;
1140;SDS011;559;48.628;8.924;2022-11-14T11:26:16;75.05;;;70.45;;
1140;SDS011;559;48.628;8.924;2022-11-14T11:28:44;73.72;;;69.22;;
1140;SDS011;559;48.628;8.924;2022-11-14T11:31:27;75.60;;;71.10;;
1140;SDS011;559;48.628;8.924;2022-11-14T11:33:53;73.68;;;68.70;;
1140;SDS011;559;48.628;8.924;2022-11-14T11:36:22;72.82;;;68.32;;
1140;SDS011;559;48.628;8.924;2022-11-14T11:38:50;71.05;;;66.57;;
1140;SDS011;559;48.628;8.924;2022-11-14T11:41:18;67.35;;;63.05;;
1140;SDS011;559;48.628;8.924;2022-11-14T11:43:48;66.75;;;62.55;;
1140;SDS011;559;48.628;8.924;2022-11-14T11:46:20;69.00;;;64.47;;
1140;SDS011;559;48.628;8.924;2022-11-14T11:48:50;70.22;;;65.90;;
1140;SDS011;559;48.628;8.924;2022-11-14T11:51:22;68.88;;;64.68;;
1140;SDS011;559;48.628;8.924;2022-11-14T11:53:54;62.97;;;58.88;;
1140;SDS011;559;48.628;8.924;2022-11-14T11:56:24;63.50;;;59.40;;
1140;SDS011;559;48.628;8.924;2022-11-14T11:58:52;72.40;;;66.45;;
1140;SDS011;559;48.628;8.924;2022-11-14T12:01:21;69.10;;;64.80;;
1140;SDS011;559;48.628;8.924;2022-11-14T12:03:49;68.45;;;64.25;;
1140;SDS011;559;48.628;8.924;2022-11-14T12:06:17;68.85;;;64.35;;
1140;SDS011;559;48.628;8.924;2022-11-14T12:08:56;69.72;;;65.53;;
1140;SDS011;559;48.628;8.924;2022-11-14T12:11:29;65.70;;;61.80;;
1140;SDS011;559;48.628;8.924;2022-11-14T12:17:05;62.17;;;58.38;;
1140;SDS011;559;48.628;8.924;2022-11-14T12:20:04;67.28;;;63.00;;
1140;SDS011;559;48.628;8.924;2022-11-14T12:22:44;61.42;;;57.53;;
1140;SDS011;559;48.628;8.924;2022-11-14T12:25:30;59.72;;;56.13;;
1140;SDS011;559;48.628;8.924;2022-11-14T12:28:07;59.83;;;56.13;;
1140;SDS011;559;48.628;8.924;2022-11-14T12:30:40;62.30;;;58.50;;
1140;SDS011;559;48.628;8.924;2022-11-14T12:33:14;61.85;;;58.35;;
1140;SDS011;559;48.628;8.924;2022-11-14T12:35:46;61.70;;;58.03;;
1140;SDS011;559;48.628;8.924;2022-11-14T12:38:15;60.38;;;56.97;;
1140;SDS011;559;48.628;8.924;2022-11-14T12:40:49;56.63;;;53.33;;
1140;SDS011;559;48.628;8.924;2022-11-14T12:43:26;59.72;;;56.35;;
1140;SDS011;559;48.628;8.924;2022-11-14T12:45:57;55.65;;;52.45;;
1140;SDS011;559;48.628;8.924;2022-11-14T12:48:29;57.80;;;54.60;;
1140;SDS011;559;48.628;8.924;2022-11-14T12:50:57;58.08;;;54.78;;
1140;SDS011;559;48.628;8.924;2022-11-14T12:53:37;59.65;;;56.35;;
1140;SDS011;559;48.628;8.924;2022-11-14T12:56:13;57.17;;;54.00;;
1140;SDS011;559;48.628;8.924;2022-11-14T13:01:37;53.70;;;50.80;;
1140;SDS011;559;48.628;8.924;2022-11-14T13:04:22;54.30;;;51.30;;
1140;SDS011;559;48.628;8.924;2022-11-14T13:06:58;52.97;;;50.05;;
1140;SDS011;559;48.628;8.924;2022-11-14T13:09:31;52.15;;;49.25;;
1140;SDS011;559;48.628;8.924;2022-11-14T13:15:20;54.72;;;51.80;;
1140;SDS011;559;48.628;8.924;2022-11-14T13:18:15;54.05;;;50.55;;
1140;SDS011;559;48.628;8.924;2022-11-14T13:21:03;53.97;;;50.95;;
1140;SDS011;559;48.628;8.924;2022-11-14T13:23:52;51.42;;;48.55;;
1140;SDS011;559;48.628;8.924;2022-11-14T13:26:36;51.80;;;48.97;;
1140;SDS011;559;48.628;8.924;2022-11-14T13:29:04;51.90;;;49.20;;
1140;SDS011;559;48.628;8.924;2022-11-14T13:31:46;49.60;;;46.90;;
1140;SDS011;559;48.628;8.924;2022-11-14T13:37:07;47.60;;;45.30;;
1140;SDS011;559;48.628;8.924;2022-11-14T13:39:40;47.00;;;44.70;;
1140;SDS011;559;48.628;8.924;2022-11-14T13:42:13;47.50;;;45.30;;
1140;SDS011;559;48.628;8.924;2022-11-14T13:51:08;46.88;;;44.78;;
1140;SDS011;559;48.628;8.924;2022-11-14T13:53:36;45.90;;;43.90;;
1140;SDS011;559;48.628;8.924;2022-11-14T13:56:07;45.45;;;43.45;;
1140;SDS011;559;48.628;8.924;2022-11-14T13:58:47;46.25;;;43.88;;
1140;SDS011;559;48.628;8.924;2022-11-14T14:01:42;45.05;;;42.95;;
1140;SDS011;559;48.628;8.924;2022-11-14T14:04:19;46.58;;;44.28;;
1140;SDS011;559;48.628;8.924;2022-11-14T14:06:56;46.10;;;43.90;;
1140;SDS011;559;48.628;8.924;2022-11-14T14:09:31;46.42;;;44.25;;
1140;SDS011;559;48.628;8.924;2022-11-14T14:12:09;47.38;;;45.08;;
1140;SDS011;559;48.628;8.924;2022-11-14T14:14:49;46.65;;;44.35;;
1140;SDS011;559;48.628;8.924;2022-11-14T14:17:25;48.03;;;45.55;;
1140;SDS011;559;48.628;8.924;2022-11-14T14:19:59;48.55;;;46.15;;
1140;SDS011;559;48.628;8.924;2022-11-14T14:22:33;48.47;;;45.78;;
1140;SDS011;559;48.628;8.924;2022-11-14T14:25:07;47.20;;;44.80;;
1140;SDS011;559;48.628;8.924;2022-11-14T14:27:40;47.25;;;44.95;;
1140;SDS011;559;48.628;8.924;2022-11-14T14:30:12;47.60;;;45.30;;
1140;SDS011;559;48.628;8.924;2022-11-14T14:32:39;48.85;;;46.45;;
1140;SDS011;559;48.628;8.924;2022-11-14T14:35:18;50.00;;;47.40;;
1140;SDS011;559;48.628;8.924;2022-11-14T14:37:51;48.90;;;46.20;;
1140;SDS011;559;48.628;8.924;2022-11-14T14:40:22;49.15;;;46.55;;
1140;SDS011;559;48.628;8.924;2022-11-14T14:42:50;50.20;;;47.42;;
1140;SDS011;559;48.628;8.924;2022-11-14T14:45:18;50.17;;;47.30;;
1140;SDS011;559;48.628;8.924;2022-11-14T14:47:46;49.20;;;46.70;;
1140;SDS011;559;48.628;8.924;2022-11-14T14:50:15;50.65;;;47.95;;
1140;SDS011;559;48.628;8.924;2022-11-14T14:52:43;51.03;;;48.13;;
1140;SDS011;559;48.628;8.924;2022-11-14T14:55:19;52.53;;;49.67;;
1140;SDS011;559;48.628;8.924;2022-11-14T14:57:46;50.38;;;47.67;;
1140;SDS011;559;48.628;8.924;2022-11-14T15:00:19;48.20;;;45.60;;
1140;SDS011;559;48.628;8.924;2022-11-14T15:02:49;47.00;;;44.60;;
1140;SDS011;559;48.628;8.924;2022-11-14T15:05:22;48.60;;;46.13;;
1140;SDS011;559;48.628;8.924;2022-11-14T15:07:49;45.15;;;42.97;;
1140;SDS011;559;48.628;8.924;2022-11-14T15:12:48;43.15;;;41.20;;
1140;SDS011;559;48.628;8.924;2022-11-14T15:15:17;45.92;;;43.88;;
1140;SDS011;559;48.628;8.924;2022-11-14T15:17:44;44.67;;;42.65;;
1140;SDS011;559;48.628;8.924;2022-11-14T15:20:21;46.47;;;44.38;;
1140;SDS011;559;48.628;8.924;2022-11-14T15:23:01;47.83;;;45.72;;
1140;SDS011;559;48.628;8.924;2022-11-14T15:25:30;47.78;;;45.58;;
1140;SDS011;559;48.628;8.924;2022-11-14T15:27:57;50.92;;;48.33;;
1140;SDS011;559;48.628;8.924;2022-11-14T15:30:25;51.20;;;48.70;;
1140;SDS011;559;48.628;8.924;2022-11-14T15:32:55;51.30;;;48.80;;
1140;SDS011;559;48.628;8.924;2022-11-14T15:35:24;53.10;;;50.30;;